sensor_id;sensor_type;location;lat;lon;timestamp;P1;P2;P0
69349;PMS5003;64554;43.452;4.934;2023-06-01T00:01:49;13.00;12.60;9.00
69349;PMS5003;64554;43.452;4.934;2023-06-01T00:04:15;14.80;14.00;8.00
69349;PMS5003;64554;43.452;4.934;2023-06-01T00:06:43;13.00;12.00;9.00
69349;PMS5003;64554;43.452;4.934;2023-06-01T00:09:10;12.20;12.20;8.20
69349;PMS5003;64554;43.452;4.934;2023-06-01T00:11:36;13.00;13.00;9.75
69349;PMS5003;64554;43.452;4.934;2023-06-01T00:14:03;17.00;16.00;10.00
69349;PMS5003;64554;43.452;4.934;2023-06-01T00:16:30;12.60;12.60;9.00
69349;PMS5003;64554;43.452;4.934;2023-06-01T00:18:57;15.60;14.60;9.00
69349;PMS5003;64554;43.452;4.934;2023-06-01T00:21:27;15.50;13.50;9.00
69349;PMS5003;64554;43.452;4.934;2023-06-01T00:23:54;13.40;13.40;9.00
69349;PMS5003;64554;43.452;4.934;2023-06-01T00:26:21;13.00;13.00;9.00
69349;PMS5003;64554;43.452;4.934;2023-06-01T00:28:47;12.60;12.60;8.00
69349;PMS5003;64554;43.452;4.934;2023-06-01T00:31:14;18.20;18.20;9.00
69349;PMS5003;64554;43.452;4.934;2023-06-01T00:33:41;14.20;12.40;8.80
69349;PMS5003;64554;43.452;4.934;2023-06-01T00:36:07;12.00;12.00;8.00
69349;PMS5003;64554;43.452;4.934;2023-06-01T00:38:34;18.40;17.20;10.40
69349;PMS5003;64554;43.452;4.934;2023-06-01T00:41:00;11.50;11.50;7.50
69349;PMS5003;64554;43.452;4.934;2023-06-01T00:43:27;12.80;12.80;8.00
69349;PMS5003;64554;43.452;4.934;2023-06-01T00:45:54;13.00;13.00;9.00
69349;PMS5003;64554;43.452;4.934;2023-06-01T00:48:20;12.00;11.20;9.00
69349;PMS5003;64554;43.452;4.934;2023-06-01T00:50:47;13.00;12.33;9.00
69349;PMS5003;64554;43.452;4.934;2023-06-01T00:53:15;14.25;14.25;10.00
69349;PMS5003;64554;43.452;4.934;2023-06-01T00:55:43;13.00;13.00;10.00
69349;PMS5003;64554;43.452;4.934;2023-06-01T00:58:11;11.00;11.00;7.60
69349;PMS5003;64554;43.452;4.934;2023-06-01T01:00:37;12.60;12.60;7.60
69349;PMS5003;64554;43.452;4.934;2023-06-01T01:03:04;10.50;10.50;7.50
69349;PMS5003;64554;43.452;4.934;2023-06-01T01:05:34;12.67;12.67;9.00
69349;PMS5003;64554;43.452;4.934;2023-06-01T01:08:07;13.60;12.60;8.00
69349;PMS5003;64554;43.452;4.934;2023-06-01T01:18:11;13.00;12.00;8.00
69349;PMS5003;64554;43.452;4.934;2023-06-01T01:20:41;11.40;11.40;8.00
69349;PMS5003;64554;43.452;4.934;2023-06-01T01:23:14;10.00;9.00;6.00
69349;PMS5003;64554;43.452;4.934;2023-06-01T01:25:59;15.00;13.00;9.00
69349;PMS5003;64554;43.452;4.934;2023-06-01T01:28:37;12.00;12.00;6.60
69349;PMS5003;64554;43.452;4.934;2023-06-01T01:31:07;15.00;14.50;6.75
69349;PMS5003;64554;43.452;4.934;2023-06-01T01:33:35;11.60;11.60;6.40
69349;PMS5003;64554;43.452;4.934;2023-06-01T01:36:01;10.80;10.80;7.00
69349;PMS5003;64554;43.452;4.934;2023-06-01T01:38:29;14.75;14.75;6.75
69349;PMS5003;64554;43.452;4.934;2023-06-01T01:40:56;10.75;10.00;6.00
69349;PMS5003;64554;43.452;4.934;2023-06-01T01:43:22;11.50;11.50;7.00
69349;PMS5003;64554;43.452;4.934;2023-06-01T01:45:53;12.00;10.50;7.00
69349;PMS5003;64554;43.452;4.934;2023-06-01T01:48:27;12.00;11.50;7.00
69349;PMS5003;64554;43.452;4.934;2023-06-01T01:50:58;9.00;9.00;7.00
69349;PMS5003;64554;43.452;4.934;2023-06-01T01:53:28;11.75;11.25;5.50
69349;PMS5003;64554;43.452;4.934;2023-06-01T01:55:55;8.60;8.60;6.40
69349;PMS5003;64554;43.452;4.934;2023-06-01T01:58:23;12.00;12.00;7.25
69349;PMS5003;64554;43.452;4.934;2023-06-01T02:00:50;13.00;13.00;8.00
69349;PMS5003;64554;43.452;4.934;2023-06-01T02:03:17;8.75;8.75;5.75
69349;PMS5003;64554;43.452;4.934;2023-06-01T02:05:44;11.00;11.00;7.00
69349;PMS5003;64554;43.452;4.934;2023-06-01T02:08:11;9.20;9.20;6.00
69349;PMS5003;64554;43.452;4.934;2023-06-01T02:10:37;11.40;10.00;7.00
69349;PMS5003;64554;43.452;4.934;2023-06-01T02:13:04;11.00;10.00;6.00
69349;PMS5003;64554;43.452;4.934;2023-06-01T02:15:30;10.00;10.00;6.40
69349;PMS5003;64554;43.452;4.934;2023-06-01T02:17:57;10.00;10.00;5.40
69349;PMS5003;64554;43.452;4.934;2023-06-01T02:20:25;8.00;8.00;5.00
69349;PMS5003;64554;43.452;4.934;2023-06-01T02:22:52;13.00;10.00;7.00
69349;PMS5003;64554;43.452;4.934;2023-06-01T02:25:18;12.00;10.00;7.00
69349;PMS5003;64554;43.452;4.934;2023-06-01T02:27:45;14.00;11.00;8.00
69349;PMS5003;64554;43.452;4.934;2023-06-01T02:30:12;11.60;11.60;7.60
69349;PMS5003;64554;43.452;4.934;2023-06-01T02:32:39;10.00;9.00;6.00
69349;PMS5003;64554;43.452;4.934;2023-06-01T02:35:05;10.00;10.00;6.00
69349;PMS5003;64554;43.452;4.934;2023-06-01T02:37:35;10.60;10.00;7.00
69349;PMS5003;64554;43.452;4.934;2023-06-01T02:40:01;10.60;9.40;5.60
69349;PMS5003;64554;43.452;4.934;2023-06-01T02:42:29;10.25;10.25;6.25
69349;PMS5003;64554;43.452;4.934;2023-06-01T02:44:55;10.00;10.00;7.00
69349;PMS5003;64554;43.452;4.934;2023-06-01T02:47:22;10.00;10.00;7.00
69349;PMS5003;64554;43.452;4.934;2023-06-01T02:49:48;11.00;9.25;6.00
69349;PMS5003;64554;43.452;4.934;2023-06-01T02:52:15;11.00;11.00;7.00
69349;PMS5003;64554;43.452;4.934;2023-06-01T02:54:42;9.75;9.50;7.00
69349;PMS5003;64554;43.452;4.934;2023-06-01T02:57:09;8.40;8.40;5.20
69349;PMS5003;64554;43.452;4.934;2023-06-01T02:59:35;10.40;9.60;6.00
69349;PMS5003;64554;43.452;4.934;2023-06-01T03:02:02;7.40;7.40;4.40
69349;PMS5003;64554;43.452;4.934;2023-06-01T03:04:28;7.60;7.60;5.00
69349;PMS5003;64554;43.452;4.934;2023-06-01T03:06:55;9.00;9.00;6.00
69349;PMS5003;64554;43.452;4.934;2023-06-01T03:09:22;14.00;12.40;6.00
69349;PMS5003;64554;43.452;4.934;2023-06-01T03:11:49;8.75;8.75;5.50
69349;PMS5003;64554;43.452;4.934;2023-06-01T03:14:15;10.00;10.00;6.00
69349;PMS5003;64554;43.452;4.934;2023-06-01T03:16:42;11.00;11.00;8.00
69349;PMS5003;64554;43.452;4.934;2023-06-01T03:19:08;9.00;9.00;5.25
69349;PMS5003;64554;43.452;4.934;2023-06-01T03:21:35;10.00;9.00;5.00
69349;PMS5003;64554;43.452;4.934;2023-06-01T03:24:02;11.00;10.00;7.00
69349;PMS5003;64554;43.452;4.934;2023-06-01T03:26:28;7.80;7.80;4.80
69349;PMS5003;64554;43.452;4.934;2023-06-01T03:28:55;10.60;10.00;6.00
69349;PMS5003;64554;43.452;4.934;2023-06-01T03:31:21;9.60;9.60;6.20
69349;PMS5003;64554;43.452;4.934;2023-06-01T03:33:48;9.00;9.00;5.00
69349;PMS5003;64554;43.452;4.934;2023-06-01T03:36:15;8.50;8.00;5.50
69349;PMS5003;64554;43.452;4.934;2023-06-01T03:38:42;7.67;7.67;5.67
69349;PMS5003;64554;43.452;4.934;2023-06-01T03:41:09;11.00;9.00;6.20
69349;PMS5003;64554;43.452;4.934;2023-06-01T03:43:35;13.00;13.00;6.40
69349;PMS5003;64554;43.452;4.934;2023-06-01T03:46:02;12.25;12.25;8.00
69349;PMS5003;64554;43.452;4.934;2023-06-01T03:48:29;15.00;15.00;7.00
69349;PMS5003;64554;43.452;4.934;2023-06-01T03:50:55;8.00;8.00;6.00
69349;PMS5003;64554;43.452;4.934;2023-06-01T03:53:22;10.80;8.80;5.80
69349;PMS5003;64554;43.452;4.934;2023-06-01T03:55:48;12.00;12.00;6.00
69349;PMS5003;64554;43.452;4.934;2023-06-01T03:58:17;14.00;9.60;7.00
69349;PMS5003;64554;43.452;4.934;2023-06-01T04:00:45;8.80;8.80;4.80
69349;PMS5003;64554;43.452;4.934;2023-06-01T04:03:12;9.67;9.67;5.67
69349;PMS5003;64554;43.452;4.934;2023-06-01T04:05:41;10.75;10.75;7.00
69349;PMS5003;64554;43.452;4.934;2023-06-01T04:08:08;9.00;9.00;6.00
69349;PMS5003;64554;43.452;4.934;2023-06-01T04:10:35;10.20;9.00;6.00
69349;PMS5003;64554;43.452;4.934;2023-06-01T04:13:01;9.75;9.00;5.00
69349;PMS5003;64554;43.452;4.934;2023-06-01T04:15:28;13.00;12.20;6.00
69349;PMS5003;64554;43.452;4.934;2023-06-01T04:17:55;9.00;9.00;7.00
69349;PMS5003;64554;43.452;4.934;2023-06-01T04:20:22;9.00;9.00;6.00
69349;PMS5003;64554;43.452;4.934;2023-06-01T04:22:49;10.00;9.50;6.00
69349;PMS5003;64554;43.452;4.934;2023-06-01T04:25:15;11.40;10.40;7.00
69349;PMS5003;64554;43.452;4.934;2023-06-01T04:27:49;12.00;12.00;8.00
69349;PMS5003;64554;43.452;4.934;2023-06-01T04:30:18;6.50;6.50;4.50
69349;PMS5003;64554;43.452;4.934;2023-06-01T04:32:46;9.25;9.25;6.00
69349;PMS5003;64554;43.452;4.934;2023-06-01T04:35:15;10.00;9.00;5.00
69349;PMS5003;64554;43.452;4.934;2023-06-01T04:37:41;8.20;7.40;4.40
69349;PMS5003;64554;43.452;4.934;2023-06-01T04:40:09;7.80;7.20;6.00
69349;PMS5003;64554;43.452;4.934;2023-06-01T04:42:37;9.00;8.00;5.00
69349;PMS5003;64554;43.452;4.934;2023-06-01T04:45:23;11.00;10.00;6.75
69349;PMS5003;64554;43.452;4.934;2023-06-01T04:47:49;8.40;8.00;6.00
69349;PMS5003;64554;43.452;4.934;2023-06-01T04:50:16;10.00;10.00;7.00
69349;PMS5003;64554;43.452;4.934;2023-06-01T04:52:43;8.20;8.20;5.60
69349;PMS5003;64554;43.452;4.934;2023-06-01T04:55:10;11.00;11.00;7.00
69349;PMS5003;64554;43.452;4.934;2023-06-01T04:57:39;7.00;7.00;5.00
69349;PMS5003;64554;43.452;4.934;2023-06-01T05:00:09;14.00;11.00;6.00
69349;PMS5003;64554;43.452;4.934;2023-06-01T05:02:41;7.60;6.60;5.00
69349;PMS5003;64554;43.452;4.934;2023-06-01T05:05:13;6.00;6.00;4.50
69349;PMS5003;64554;43.452;4.934;2023-06-01T05:07:40;8.40;7.40;5.00
69349;PMS5003;64554;43.452;4.934;2023-06-01T05:10:08;9.00;9.00;5.00
69349;PMS5003;64554;43.452;4.934;2023-06-01T05:12:36;12.75;9.25;5.25
69349;PMS5003;64554;43.452;4.934;2023-06-01T05:15:04;12.50;12.50;5.00
69349;PMS5003;64554;43.452;4.934;2023-06-01T05:17:30;8.00;8.00;5.60
69349;PMS5003;64554;43.452;4.934;2023-06-01T05:19:57;12.25;11.50;6.00
69349;PMS5003;64554;43.452;4.934;2023-06-01T05:22:24;7.00;7.00;5.00
69349;PMS5003;64554;43.452;4.934;2023-06-01T05:24:51;8.00;8.00;5.00
69349;PMS5003;64554;43.452;4.934;2023-06-01T05:27:17;7.00;7.00;4.25
69349;PMS5003;64554;43.452;4.934;2023-06-01T05:29:44;8.00;8.00;6.00
69349;PMS5003;64554;43.452;4.934;2023-06-01T05:32:10;8.80;8.80;5.00
69349;PMS5003;64554;43.452;4.934;2023-06-01T05:34:37;8.50;8.50;5.50
69349;PMS5003;64554;43.452;4.934;2023-06-01T05:37:04;6.00;6.00;3.60
69349;PMS5003;64554;43.452;4.934;2023-06-01T05:39:30;9.25;8.00;5.00
69349;PMS5003;64554;43.452;4.934;2023-06-01T05:41:57;6.80;6.80;5.00
69349;PMS5003;64554;43.452;4.934;2023-06-01T05:44:24;8.00;7.40;5.40
69349;PMS5003;64554;43.452;4.934;2023-06-01T05:46:51;7.00;7.00;5.00
69349;PMS5003;64554;43.452;4.934;2023-06-01T05:49:19;7.00;5.80;4.40
69349;PMS5003;64554;43.452;4.934;2023-06-01T05:51:46;8.20;8.20;5.00
69349;PMS5003;64554;43.452;4.934;2023-06-01T05:54:12;6.00;6.00;4.00
69349;PMS5003;64554;43.452;4.934;2023-06-01T05:56:39;8.00;8.00;5.00
69349;PMS5003;64554;43.452;4.934;2023-06-01T05:59:08;7.75;7.00;4.00
69349;PMS5003;64554;43.452;4.934;2023-06-01T06:01:34;8.00;8.00;6.00
69349;PMS5003;64554;43.452;4.934;2023-06-01T06:04:02;7.00;5.50;4.50
69349;PMS5003;64554;43.452;4.934;2023-06-01T06:06:29;8.80;7.00;4.80
69349;PMS5003;64554;43.452;4.934;2023-06-01T06:08:58;7.80;7.80;5.00
69349;PMS5003;64554;43.452;4.934;2023-06-01T06:11:24;7.60;7.60;4.60
69349;PMS5003;64554;43.452;4.934;2023-06-01T06:13:52;6.40;6.20;4.60
69349;PMS5003;64554;43.452;4.934;2023-06-01T06:16:18;6.75;6.75;3.75
69349;PMS5003;64554;43.452;4.934;2023-06-01T06:18:45;8.50;7.50;5.00
69349;PMS5003;64554;43.452;4.934;2023-06-01T06:21:12;6.50;6.50;5.50
69349;PMS5003;64554;43.452;4.934;2023-06-01T06:23:38;5.60;5.00;3.00
69349;PMS5003;64554;43.452;4.934;2023-06-01T06:26:06;7.67;7.67;4.00
69349;PMS5003;64554;43.452;4.934;2023-06-01T06:28:33;5.40;5.40;3.40
69349;PMS5003;64554;43.452;4.934;2023-06-01T06:30:59;10.00;8.00;4.40
69349;PMS5003;64554;43.452;4.934;2023-06-01T06:33:26;6.20;6.20;4.00
69349;PMS5003;64554;43.452;4.934;2023-06-01T06:35:53;7.00;7.00;5.00
69349;PMS5003;64554;43.452;4.934;2023-06-01T06:38:20;9.40;8.40;5.40
69349;PMS5003;64554;43.452;4.934;2023-06-01T06:40:47;5.60;5.60;3.20
69349;PMS5003;64554;43.452;4.934;2023-06-01T06:43:13;8.00;6.00;4.00
69349;PMS5003;64554;43.452;4.934;2023-06-01T06:45:41;7.00;7.00;5.00
69349;PMS5003;64554;43.452;4.934;2023-06-01T06:48:08;7.00;7.00;6.00
69349;PMS5003;64554;43.452;4.934;2023-06-01T06:50:34;8.40;7.00;5.00
69349;PMS5003;64554;43.452;4.934;2023-06-01T06:53:01;7.75;7.50;6.00
69349;PMS5003;64554;43.452;4.934;2023-06-01T06:55:28;6.25;6.25;5.25
69349;PMS5003;64554;43.452;4.934;2023-06-01T06:57:54;8.00;6.60;5.00
69349;PMS5003;64554;43.452;4.934;2023-06-01T07:00:21;7.00;7.00;4.40
69349;PMS5003;64554;43.452;4.934;2023-06-01T07:02:48;5.50;5.50;3.50
69349;PMS5003;64554;43.452;4.934;2023-06-01T07:05:15;9.75;9.75;6.75
69349;PMS5003;64554;43.452;4.934;2023-06-01T07:07:41;6.20;6.20;4.00
69349;PMS5003;64554;43.452;4.934;2023-06-01T07:10:08;8.00;8.00;6.00
69349;PMS5003;64554;43.452;4.934;2023-06-01T07:12:35;7.00;7.00;5.00
69349;PMS5003;64554;43.452;4.934;2023-06-01T07:15:01;6.00;6.00;5.00
69349;PMS5003;64554;43.452;4.934;2023-06-01T07:17:28;8.00;8.00;5.00
69349;PMS5003;64554;43.452;4.934;2023-06-01T07:19:55;7.00;7.00;5.00
69349;PMS5003;64554;43.452;4.934;2023-06-01T07:22:22;6.20;6.20;4.80
69349;PMS5003;64554;43.452;4.934;2023-06-01T07:24:48;7.00;7.00;4.00
69349;PMS5003;64554;43.452;4.934;2023-06-01T07:27:15;7.40;7.40;5.40
69349;PMS5003;64554;43.452;4.934;2023-06-01T07:29:43;6.00;6.00;3.20
69349;PMS5003;64554;43.452;4.934;2023-06-01T07:32:11;8.00;8.00;5.60
69349;PMS5003;64554;43.452;4.934;2023-06-01T07:34:38;9.67;9.67;7.00
69349;PMS5003;64554;43.452;4.934;2023-06-01T07:37:04;8.00;8.00;6.00
69349;PMS5003;64554;43.452;4.934;2023-06-01T07:39:43;10.00;8.40;6.00
69349;PMS5003;64554;43.452;4.934;2023-06-01T07:42:09;9.40;9.40;7.00
69349;PMS5003;64554;43.452;4.934;2023-06-01T07:44:36;9.00;9.00;8.00
69349;PMS5003;64554;43.452;4.934;2023-06-01T07:47:03;10.25;10.25;7.00
69349;PMS5003;64554;43.452;4.934;2023-06-01T07:49:30;9.25;9.25;5.75
69349;PMS5003;64554;43.452;4.934;2023-06-01T07:51:56;14.00;13.00;8.00
69349;PMS5003;64554;43.452;4.934;2023-06-01T07:54:25;11.75;10.25;6.75
69349;PMS5003;64554;43.452;4.934;2023-06-01T07:56:52;8.25;7.25;5.00
69349;PMS5003;64554;43.452;4.934;2023-06-01T07:59:19;12.00;12.00;7.00
69349;PMS5003;64554;43.452;4.934;2023-06-01T08:01:50;8.00;8.00;5.80
69349;PMS5003;64554;43.452;4.934;2023-06-01T08:04:18;9.20;9.20;5.60
69349;PMS5003;64554;43.452;4.934;2023-06-01T08:06:47;12.50;12.50;5.50
69349;PMS5003;64554;43.452;4.934;2023-06-01T08:09:14;10.20;8.40;5.00
69349;PMS5003;64554;43.452;4.934;2023-06-01T08:11:41;9.50;9.00;5.75
69349;PMS5003;64554;43.452;4.934;2023-06-01T08:14:07;9.75;9.50;7.75
69349;PMS5003;64554;43.452;4.934;2023-06-01T08:16:35;10.40;10.00;7.00
69349;PMS5003;64554;43.452;4.934;2023-06-01T08:19:01;10.40;10.40;6.40
69349;PMS5003;64554;43.452;4.934;2023-06-01T08:21:29;11.40;11.40;7.40
69349;PMS5003;64554;43.452;4.934;2023-06-01T08:23:56;9.00;9.00;5.60
69349;PMS5003;64554;43.452;4.934;2023-06-01T08:26:22;12.40;10.60;6.80
69349;PMS5003;64554;43.452;4.934;2023-06-01T08:28:49;10.00;9.20;7.20
69349;PMS5003;64554;43.452;4.934;2023-06-01T08:31:19;8.00;8.00;6.00
69349;PMS5003;64554;43.452;4.934;2023-06-01T08:33:47;7.00;7.00;5.00
69349;PMS5003;64554;43.452;4.934;2023-06-01T08:36:14;9.00;9.00;7.00
69349;PMS5003;64554;43.452;4.934;2023-06-01T08:38:41;11.50;10.00;7.50
69349;PMS5003;64554;43.452;4.934;2023-06-01T08:41:11;10.50;8.50;7.00
69349;PMS5003;64554;43.452;4.934;2023-06-01T08:43:37;10.00;10.00;7.00
69349;PMS5003;64554;43.452;4.934;2023-06-01T08:46:07;10.60;10.60;8.00
69349;PMS5003;64554;43.452;4.934;2023-06-01T08:48:33;9.80;9.80;6.80
69349;PMS5003;64554;43.452;4.934;2023-06-01T08:51:01;9.80;9.80;7.80
69349;PMS5003;64554;43.452;4.934;2023-06-01T08:53:28;8.60;8.60;5.60
69349;PMS5003;64554;43.452;4.934;2023-06-01T08:55:56;10.40;10.40;7.20
69349;PMS5003;64554;43.452;4.934;2023-06-01T08:58:22;9.80;9.80;7.80
69349;PMS5003;64554;43.452;4.934;2023-06-01T09:00:50;8.60;8.60;6.60
69349;PMS5003;64554;43.452;4.934;2023-06-01T09:03:17;11.75;11.75;8.25
69349;PMS5003;64554;43.452;4.934;2023-06-01T09:05:43;12.75;10.25;7.50
69349;PMS5003;64554;43.452;4.934;2023-06-01T09:08:10;12.00;10.50;8.00
69349;PMS5003;64554;43.452;4.934;2023-06-01T09:10:37;13.00;13.00;8.25
69349;PMS5003;64554;43.452;4.934;2023-06-01T09:13:04;11.00;10.00;8.25
69349;PMS5003;64554;43.452;4.934;2023-06-01T09:15:31;13.00;12.00;7.60
69349;PMS5003;64554;43.452;4.934;2023-06-01T09:18:04;10.60;8.60;7.20
69349;PMS5003;64554;43.452;4.934;2023-06-01T09:20:31;14.50;13.00;8.00
69349;PMS5003;64554;43.452;4.934;2023-06-01T09:22:58;13.00;13.00;9.60
69349;PMS5003;64554;43.452;4.934;2023-06-01T09:25:25;12.00;12.00;8.20
69349;PMS5003;64554;43.452;4.934;2023-06-01T09:27:56;13.00;13.00;10.00
69349;PMS5003;64554;43.452;4.934;2023-06-01T09:30:23;12.50;11.00;8.00
69349;PMS5003;64554;43.452;4.934;2023-06-01T09:32:51;14.25;14.25;10.00
69349;PMS5003;64554;43.452;4.934;2023-06-01T09:38:11;12.33;11.67;8.67
69349;PMS5003;64554;43.452;4.934;2023-06-01T09:40:38;11.40;11.40;7.80
69349;PMS5003;64554;43.452;4.934;2023-06-01T09:43:21;14.60;14.60;10.20
69349;PMS5003;64554;43.452;4.934;2023-06-01T09:46:10;16.40;15.00;10.40
69349;PMS5003;64554;43.452;4.934;2023-06-01T09:48:37;13.60;12.00;8.60
69349;PMS5003;64554;43.452;4.934;2023-06-01T09:51:04;15.75;14.00;9.50
69349;PMS5003;64554;43.452;4.934;2023-06-01T09:53:40;12.20;11.20;9.00
69349;PMS5003;64554;43.452;4.934;2023-06-01T09:56:07;12.75;12.75;9.00
69349;PMS5003;64554;43.452;4.934;2023-06-01T09:58:34;10.50;10.50;7.75
69349;PMS5003;64554;43.452;4.934;2023-06-01T10:01:05;10.60;9.20;6.60
69349;PMS5003;64554;43.452;4.934;2023-06-01T10:03:38;14.40;12.80;9.00
69349;PMS5003;64554;43.452;4.934;2023-06-01T10:06:07;11.80;11.80;9.80
69349;PMS5003;64554;43.452;4.934;2023-06-01T10:08:34;13.00;13.00;9.00
69349;PMS5003;64554;43.452;4.934;2023-06-01T10:11:01;13.00;13.00;9.00
69349;PMS5003;64554;43.452;4.934;2023-06-01T10:13:28;14.00;12.00;9.00
69349;PMS5003;64554;43.452;4.934;2023-06-01T10:15:55;14.50;13.00;8.50
69349;PMS5003;64554;43.452;4.934;2023-06-01T10:18:22;14.75;14.00;9.50
69349;PMS5003;64554;43.452;4.934;2023-06-01T10:20:48;11.00;11.00;9.00
69349;PMS5003;64554;43.452;4.934;2023-06-01T10:23:15;11.60;11.60;9.60
69349;PMS5003;64554;43.452;4.934;2023-06-01T10:25:55;13.25;12.50;9.50
69349;PMS5003;64554;43.452;4.934;2023-06-01T10:28:23;11.00;11.00;9.00
69349;PMS5003;64554;43.452;4.934;2023-06-01T10:33:52;10.25;10.25;8.00
69349;PMS5003;64554;43.452;4.934;2023-06-01T10:36:19;12.00;11.00;8.00
69349;PMS5003;64554;43.452;4.934;2023-06-01T10:38:46;17.50;13.00;9.00
69349;PMS5003;64554;43.452;4.934;2023-06-01T10:41:27;14.80;13.20;8.20
69349;PMS5003;64554;43.452;4.934;2023-06-01T10:43:54;12.50;12.50;10.50
69349;PMS5003;64554;43.452;4.934;2023-06-01T10:46:34;15.00;13.60;8.80
69349;PMS5003;64554;43.452;4.934;2023-06-01T10:49:02;15.00;13.60;9.60
69349;PMS5003;64554;43.452;4.934;2023-06-01T10:51:29;13.60;12.20;9.20
69349;PMS5003;64554;43.452;4.934;2023-06-01T10:54:24;12.00;12.00;8.00
69349;PMS5003;64554;43.452;4.934;2023-06-01T10:56:46;12.25;12.25;9.75
69349;PMS5003;64554;43.452;4.934;2023-06-01T10:59:12;12.00;12.00;9.00
69349;PMS5003;64554;43.452;4.934;2023-06-01T11:01:44;12.75;11.75;7.25
69349;PMS5003;64554;43.452;4.934;2023-06-01T11:04:12;14.40;14.40;9.60
69349;PMS5003;64554;43.452;4.934;2023-06-01T11:06:39;13.20;11.60;9.20
69349;PMS5003;64554;43.452;4.934;2023-06-01T11:09:07;14.00;14.00;10.00
69349;PMS5003;64554;43.452;4.934;2023-06-01T11:14:18;11.60;11.60;9.00
69349;PMS5003;64554;43.452;4.934;2023-06-01T11:16:45;12.00;12.00;9.50
69349;PMS5003;64554;43.452;4.934;2023-06-01T11:19:18;12.00;11.00;8.50
69349;PMS5003;64554;43.452;4.934;2023-06-01T11:21:47;12.00;12.00;9.00
69349;PMS5003;64554;43.452;4.934;2023-06-01T11:24:15;17.00;16.00;9.75
69349;PMS5003;64554;43.452;4.934;2023-06-01T11:26:43;12.75;12.75;9.75
69349;PMS5003;64554;43.452;4.934;2023-06-01T11:29:11;11.20;11.20;8.20
69349;PMS5003;64554;43.452;4.934;2023-06-01T11:31:40;13.20;11.40;9.20
69349;PMS5003;64554;43.452;4.934;2023-06-01T11:34:07;12.60;12.60;7.40
69349;PMS5003;64554;43.452;4.934;2023-06-01T11:36:44;19.50;17.50;10.00
69349;PMS5003;64554;43.452;4.934;2023-06-01T11:41:50;17.80;15.80;11.20
69349;PMS5003;64554;43.452;4.934;2023-06-01T11:44:19;12.00;12.00;8.50
69349;PMS5003;64554;43.452;4.934;2023-06-01T11:46:52;15.60;14.00;9.00
69349;PMS5003;64554;43.452;4.934;2023-06-01T11:49:20;12.20;10.40;8.20
69349;PMS5003;64554;43.452;4.934;2023-06-01T11:51:46;13.20;13.20;9.60
69349;PMS5003;64554;43.452;4.934;2023-06-01T11:54:13;12.40;12.40;9.40
69349;PMS5003;64554;43.452;4.934;2023-06-01T11:56:40;11.00;11.00;8.50
69349;PMS5003;64554;43.452;4.934;2023-06-01T11:59:07;14.60;12.80;8.60
69349;PMS5003;64554;43.452;4.934;2023-06-01T12:01:46;13.25;13.25;9.00
69349;PMS5003;64554;43.452;4.934;2023-06-01T12:04:17;13.40;12.40;8.40
69349;PMS5003;64554;43.452;4.934;2023-06-01T12:06:44;14.25;14.25;9.50
69349;PMS5003;64554;43.452;4.934;2023-06-01T12:09:12;14.50;13.50;10.25
69349;PMS5003;64554;43.452;4.934;2023-06-01T12:11:39;12.50;12.50;9.50
69349;PMS5003;64554;43.452;4.934;2023-06-01T12:14:12;16.75;16.75;10.25
69349;PMS5003;64554;43.452;4.934;2023-06-01T12:16:56;13.25;13.25;10.25
69349;PMS5003;64554;43.452;4.934;2023-06-01T12:19:25;16.00;14.25;10.00
69349;PMS5003;64554;43.452;4.934;2023-06-01T12:21:53;12.25;12.25;9.25
69349;PMS5003;64554;43.452;4.934;2023-06-01T12:24:28;13.80;13.80;9.40
69349;PMS5003;64554;43.452;4.934;2023-06-01T12:26:56;14.00;14.00;9.20
69349;PMS5003;64554;43.452;4.934;2023-06-01T12:29:36;14.00;12.60;9.00
69349;PMS5003;64554;43.452;4.934;2023-06-01T12:32:08;12.50;12.00;9.25
69349;PMS5003;64554;43.452;4.934;2023-06-01T12:34:35;12.00;12.00;9.50
69349;PMS5003;64554;43.452;4.934;2023-06-01T12:39:41;12.25;12.25;8.25
69349;PMS5003;64554;43.452;4.934;2023-06-01T12:42:09;16.60;14.40;9.20
69349;PMS5003;64554;43.452;4.934;2023-06-01T12:44:37;14.00;14.00;9.40
69349;PMS5003;64554;43.452;4.934;2023-06-01T12:47:06;15.80;13.00;9.60
69349;PMS5003;64554;43.452;4.934;2023-06-01T12:49:33;13.40;13.40;10.40
69349;PMS5003;64554;43.452;4.934;2023-06-01T12:52:00;15.00;11.75;9.50
69349;PMS5003;64554;43.452;4.934;2023-06-01T12:54:28;13.20;12.40;8.40
69349;PMS5003;64554;43.452;4.934;2023-06-01T12:56:54;13.00;12.60;8.60
69349;PMS5003;64554;43.452;4.934;2023-06-01T12:59:21;15.75;14.00;9.50
69349;PMS5003;64554;43.452;4.934;2023-06-01T13:01:47;16.40;16.40;10.80
69349;PMS5003;64554;43.452;4.934;2023-06-01T13:04:15;12.60;11.60;8.60
69349;PMS5003;64554;43.452;4.934;2023-06-01T13:06:42;11.00;11.00;8.60
69349;PMS5003;64554;43.452;4.934;2023-06-01T13:09:08;13.75;12.00;8.75
69349;PMS5003;64554;43.452;4.934;2023-06-01T13:11:35;11.80;11.80;9.40
69349;PMS5003;64554;43.452;4.934;2023-06-01T13:14:01;12.50;12.50;9.50
69349;PMS5003;64554;43.452;4.934;2023-06-01T13:16:28;13.20;13.20;8.00
69349;PMS5003;64554;43.452;4.934;2023-06-01T13:18:55;12.25;12.00;9.25
69349;PMS5003;64554;43.452;4.934;2023-06-01T13:21:21;13.50;13.50;9.00
69349;PMS5003;64554;43.452;4.934;2023-06-01T13:23:48;15.00;15.00;10.50
69349;PMS5003;64554;43.452;4.934;2023-06-01T13:26:14;11.40;10.40;8.40
69349;PMS5003;64554;43.452;4.934;2023-06-01T13:28:41;16.40;15.40;9.40
69349;PMS5003;64554;43.452;4.934;2023-06-01T13:31:08;12.60;12.60;10.60
69349;PMS5003;64554;43.452;4.934;2023-06-01T13:33:35;14.75;13.25;9.00
69349;PMS5003;64554;43.452;4.934;2023-06-01T13:36:03;13.00;13.00;9.00
69349;PMS5003;64554;43.452;4.934;2023-06-01T13:38:31;15.75;13.75;9.00
69349;PMS5003;64554;43.452;4.934;2023-06-01T13:40:58;14.40;14.40;10.00
69349;PMS5003;64554;43.452;4.934;2023-06-01T13:43:24;14.00;11.40;9.00
69349;PMS5003;64554;43.452;4.934;2023-06-01T13:45:52;19.20;19.00;11.20
69349;PMS5003;64554;43.452;4.934;2023-06-01T13:48:19;14.33;13.67;8.67
69349;PMS5003;64554;43.452;4.934;2023-06-01T13:50:47;16.40;15.60;10.60
69349;PMS5003;64554;43.452;4.934;2023-06-01T13:53:13;14.00;14.00;10.00
69349;PMS5003;64554;43.452;4.934;2023-06-01T13:55:40;13.20;12.20;9.80
69349;PMS5003;64554;43.452;4.934;2023-06-01T13:58:07;21.00;19.00;11.00
69349;PMS5003;64554;43.452;4.934;2023-06-01T14:00:33;14.00;12.40;9.40
69349;PMS5003;64554;43.452;4.934;2023-06-01T14:03:00;20.60;20.00;11.60
69349;PMS5003;64554;43.452;4.934;2023-06-01T14:05:27;14.60;12.00;9.00
69349;PMS5003;64554;43.452;4.934;2023-06-01T14:08:13;19.20;19.20;10.60
69349;PMS5003;64554;43.452;4.934;2023-06-01T14:10:40;15.40;15.40;10.40
69349;PMS5003;64554;43.452;4.934;2023-06-01T14:13:07;18.00;17.40;12.00
69349;PMS5003;64554;43.452;4.934;2023-06-01T14:15:33;16.00;14.20;9.40
69349;PMS5003;64554;43.452;4.934;2023-06-01T14:18:00;14.00;14.00;10.00
69349;PMS5003;64554;43.452;4.934;2023-06-01T14:20:27;17.75;17.75;9.25
69349;PMS5003;64554;43.452;4.934;2023-06-01T14:22:54;14.25;14.25;10.25
69349;PMS5003;64554;43.452;4.934;2023-06-01T14:25:20;15.20;14.80;10.80
69349;PMS5003;64554;43.452;4.934;2023-06-01T14:27:47;14.00;13.00;9.20
69349;PMS5003;64554;43.452;4.934;2023-06-01T14:30:13;17.60;16.40;10.00